Terminal Aerodrome Forecast
Issued by NWS Wilmington, OH

Current Version | Previous Version | Graphics & Text | Print | Product List | Glossary On
Versions: 1 2 3 4 5 6 7 8 9 10 11 12 13 14 15 16 17 18 19 20 21 22
676
FTUS41 KILN 191138
TAFILN
TAF
KILN 191138Z 1912/2012 14005KT P6SM VCTS OVC070CB
      TEMPO 1913/1917 5SM -TSRA BR OVC040CB
     FM191700 21007KT P6SM VCSH OVC060
     FM200200 16004KT P6SM BKN090
     FM200700 17004KT 5SM BR BKN100=

USA.gov is the U.S. government's official web portal to all federal, state and local government web resources and services.